Pagrindinis puslapis
METAR-TAF:

METAR-TAF

Oro uostai :

San Gabriel da Kašoeira, Amazonė, Brazilija

platuma: 00-08S, ilguma: 067-05W, Aukštis: 90 m

Dabartinis oras

Ataskaita buvo paskelbta 41 minutes, ne 18:00 UTC
Vėjas 6 kt nuo kintamojo kryptimis
Temperatūra 34°C
Drėgmė 56%
Slėgis 1008 hPa
Matomumas 10 km arba daugiau
Išsisklaidę debesys ne aukštis 2500 ft
Mažai debesys ne aukštis 3000 ft, aukštai iškilę kamuoliniai debesys.
Išsisklaidę debesys ne aukštis 8500 ft

METAR: SBUA 161800Z VRB06KT 9999 SCT025 FEW030TCU SCT085 34/24 Q1008

Laikas: 14:41 (18:41 UTC)


TAF: trūkstamas

Orai ataskaitas ir orų prognozės (METAR, TAF).

turimą stotys yra geltonos ir raudonos taškus žemėlapyje.

Perkelti pele per norėdami pamatyti stoties vardą.

Tada spustelėkite, norėdami matyti oro stebėjimo ir prognozės.

Norėdami pakeisti žemėlapį: spustelėkite ant žalios mygtukų su juodo kryžiaus žemyn,; žalią mygtuką su brūkšneliu, jei norite nutolinti; arba žalių rodyklių gretimoms žemėlapius.


METAR-TAF: